Waf_motion — 4RBK — position and weather

sailwx.info

Track history (hours):
 
Tides and Currents Weather Stations Pressure Air Temp Water Temp Dewpoint Dewpoint Depression Visibility Wind Speed Wind Dir Waves Ship Positions

Waf_motion

Last reported at 2015-Aug-21 11:18 UTC. Time now 2015-Aug-27 20:43 UTC.
Position N 36°05' W 009°60'.

Length 140 m; draft 8.1 m.

Type: Ship (hazmat cat A). MMSI: 417222324.

Date/timePositionNaut miles runAvg speedWind from/ knotsBaromVisibWave heightAir tempDewpointWater temp
2015-Aug-21 11:18N 36°05' W 009°60'1115.0
2015-Aug-21 10:33N 36°17' W 009°60'1515.4
2015-Aug-21 09:33N 36°32' W 009°60'1515.2
2015-Aug-21 08:33N 36°47' W 009°60'1515.0
2015-Aug-21 07:33N 37°02' W 010°00'1514.8
2015-Aug-21 06:33N 37°17' W 010°00'1414.4
2015-Aug-21 05:33N 37°31' W 009°60'1514.6
2015-Aug-21 04:34N 37°46' W 009°60'1414.3
2015-Aug-21 03:33N 38°00' W 010°01'1515.1
2015-Aug-21 02:33N 38°15' W 010°00'1514.7
2015-Aug-21 01:33N 38°30' W 010°04'1514.9
2015-Aug-21 00:33N 38°44' W 010°07'1514.6
2015-Aug-20 23:33N 38°59' W 010°08'1515.0
2015-Aug-20 22:33N 39°14' W 010°07'1414.6
2015-Aug-20 21:33N 39°29' W 010°07'1514.7
2015-Aug-20 20:33N 39°43' W 010°07'1514.6
2015-Aug-20 19:33N 39°58' W 010°07'1414.5
2015-Aug-20 18:33N 40°12' W 010°07'1414.3
2015-Aug-20 17:33N 40°27' W 010°08'1514.7
2015-Aug-20 16:33N 40°42' W 010°08'1514.8
2015-Aug-20 15:33N 40°56' W 010°07'1515.0
2015-Aug-20 14:33N 41°11' W 010°07'26111.2
2015-Aug-19 15:09N 43°51' W 005°27'914.9
2015-Aug-19 14:32N 43°50' W 005°14'  
2015-Aug-15 13:33N 50°34' E 000°17'1413.7
2015-Aug-15 12:34N 50°38' E 000°38'1312.9
2015-Aug-15 11:34N 50°44' E 000°55'1312.8
2015-Aug-15 10:33N 50°51' E 001°12'1413.9
2015-Aug-15 09:34N 51°01' E 001°27'1616.4
2015-Aug-15 08:33N 51°13' E 001°46'1515.3
2015-Aug-15 07:33N 51°24' E 002°02'1313.4
2015-Aug-15 06:34N 51°21' E 002°23'10 9.4
2015-Aug-15 05:31N 51°24' E 002°38'0 0.1
2015-Aug-15 04:31N 51°24' E 002°38'1 1.3
2015-Aug-15 03:24N 51°24' E 002°40'8 9.8
2015-Aug-15 02:33N 51°23' E 002°53'1211.6
2015-Aug-15 01:33N 51°24' E 003°12'1110.9
2015-Aug-15 00:33N 51°25' E 003°29'8 8.3
2015-Aug-14 23:34N 51°25' E 003°43'9 8.8
2015-Aug-14 22:33N 51°23' E 003°56'7 7.2
2015-Aug-14 21:33N 51°22' E 004°08'6 5.5
2015-Aug-14 20:28N 51°21' E 004°17'0 0.0
2015-Aug-14 19:33N 51°21' E 004°17'5 4.8
2015-Aug-14 18:33N 51°16' E 004°21'3 2.9
2015-Aug-14 17:32N 51°15' E 004°24'0 0.0
2015-Aug-14 16:32N 51°15' E 004°24'0 0.0
2015-Aug-14 15:32N 51°15' E 004°24'0 0.0
2015-Aug-14 14:32N 51°15' E 004°24'0 0.0
2015-Aug-14 13:32N 51°15' E 004°24'0 0.0
2015-Aug-14 12:32N 51°15' E 004°24'0 0.0
2015-Aug-14 11:32N 51°15' E 004°24'0 0.0
2015-Aug-14 10:32N 51°15' E 004°24'0 0.0
2015-Aug-14 09:32N 51°15' E 004°24'0 0.0
2015-Aug-14 08:32N 51°15' E 004°24'0 0.0
2015-Aug-14 07:32N 51°15' E 004°24'0 0.0
2015-Aug-14 06:32N 51°15' E 004°24'0 0.0
2015-Aug-14 05:32N 51°15' E 004°24'0 0.0
2015-Aug-14 04:32N 51°15' E 004°24'0 0.0
2015-Aug-14 03:32N 51°15' E 004°24'0 0.0
2015-Aug-14 02:32N 51°15' E 004°24'0 0.0
2015-Aug-14 01:32N 51°15' E 004°24'0 0.0
2015-Aug-14 00:32N 51°15' E 004°24'0 0.0
2015-Aug-13 23:32N 51°15' E 004°24'0 0.0
2015-Aug-13 22:32N 51°15' E 004°24'0 0.0
2015-Aug-13 21:32N 51°15' E 004°24'0 0.0
2015-Aug-13 20:32N 51°15' E 004°24'0 0.0
2015-Aug-13 19:32N 51°15' E 004°24'0 0.0
2015-Aug-13 18:32N 51°15' E 004°24'0 0.0
2015-Aug-13 17:32N 51°15' E 004°24'0 0.0
2015-Aug-13 16:32N 51°15' E 004°24'0 0.0
2015-Aug-13 15:32N 51°15' E 004°24'0 0.0
2015-Aug-13 14:32N 51°15' E 004°24'0 0.0
2015-Aug-13 13:32N 51°15' E 004°24'0 0.0
2015-Aug-13 12:32N 51°15' E 004°24'0 0.0
2015-Aug-13 11:32N 51°15' E 004°24'0 0.0
2015-Aug-13 10:32N 51°15' E 004°24'0 0.0
2015-Aug-13 09:32N 51°15' E 004°24'0 0.0
2015-Aug-13 08:32N 51°15' E 004°24'0 0.0
2015-Aug-13 07:32N 51°15' E 004°24'0 0.0
2015-Aug-13 06:32N 51°15' E 004°24'0 0.0
2015-Aug-13 05:32N 51°15' E 004°24'0 0.0
2015-Aug-13 04:32N 51°15' E 004°24'0 0.0
2015-Aug-13 03:32N 51°15' E 004°24'0 0.0
2015-Aug-13 02:32N 51°15' E 004°24'0 0.0
2015-Aug-13 01:32N 51°15' E 004°24'0 0.0
2015-Aug-13 00:32N 51°15' E 004°24'0 0.0
2015-Aug-12 23:32N 51°15' E 004°24'0 0.0
2015-Aug-12 22:32N 51°15' E 004°24'0 0.0
2015-Aug-12 21:32N 51°15' E 004°24'0 0.0
2015-Aug-12 20:32N 51°15' E 004°24'0 0.0
2015-Aug-12 19:32N 51°15' E 004°24'0 0.0
2015-Aug-12 18:32N 51°15' E 004°24'0 0.0
2015-Aug-12 17:32N 51°15' E 004°24'0 0.0
2015-Aug-12 16:32N 51°15' E 004°24'0 0.0
2015-Aug-12 15:32N 51°15' E 004°24'0 0.0
2015-Aug-12 14:32N 51°15' E 004°24'0 0.0
2015-Aug-12 13:32N 51°15' E 004°24'0 0.0
2015-Aug-12 12:32N 51°15' E 004°24'0 0.0
2015-Aug-12 11:32N 51°15' E 004°24'0 0.0
2015-Aug-12 10:32N 51°15' E 004°25'0 0.0
2015-Aug-12 09:32N 51°15' E 004°24'0 0.0
2015-Aug-12 08:32N 51°15' E 004°24'0 0.0
2015-Aug-12 07:32N 51°15' E 004°24'0 0.0
2015-Aug-12 06:32N 51°15' E 004°24'0 0.0
2015-Aug-12 05:32N 51°15' E 004°24'0 0.0
2015-Aug-12 04:32N 51°15' E 004°24'0 0.0
2015-Aug-12 03:32N 51°15' E 004°24'0 0.0
2015-Aug-12 02:32N 51°15' E 004°24'0 0.0
2015-Aug-12 01:29N 51°15' E 004°24'0 0.0
2015-Aug-12 00:32N 51°15' E 004°24'0 0.0
2015-Aug-11 23:32N 51°15' E 004°24'0 0.0
2015-Aug-11 22:32N 51°15' E 004°24'0 0.0
2015-Aug-11 21:32N 51°15' E 004°24'0 0.1
2015-Aug-11 20:33N 51°15' E 004°24'4 3.8
2015-Aug-11 19:33N 51°18' E 004°20'4 3.7
2015-Aug-11 18:33N 51°21' E 004°17'0 0.2
2015-Aug-11 17:33N 51°21' E 004°17'6 5.6
2015-Aug-11 16:33N 51°22' E 004°08'7 7.0
2015-Aug-11 15:34N 51°23' E 003°57'9 9.0
2015-Aug-11 14:33N 51°23' E 003°43'9 9.3
2015-Aug-11 13:33N 51°25' E 003°28'1312.9
2015-Aug-11 12:33N 51°24' E 003°07'10 9.6
2015-Aug-11 11:34N 51°22' E 002°52'  
Track history (hours):
 
Tides and Currents Weather Stations Pressure Air Temp Water Temp Dewpoint Dewpoint Depression Visibility Wind Speed Wind Dir Waves Ship Positions

Waf_motion

Last reported at 2015-Aug-21 11:18 UTC. Time now 2015-Aug-27 20:43 UTC.
Position N 36°05' W 009°60'.

Length 140 m; draft 8.1 m.

Type: Ship (hazmat cat A). MMSI: 417222324.

Date/timePositionNaut miles runAvg speedWind from/ knotsBaromVisibWave heightAir tempDewpointWater temp
2015-Aug-21 11:18N 36°05' W 009°60'1115.0
2015-Aug-21 10:33N 36°17' W 009°60'1515.4
2015-Aug-21 09:33N 36°32' W 009°60'1515.2
2015-Aug-21 08:33N 36°47' W 009°60'1515.0
2015-Aug-21 07:33N 37°02' W 010°00'1514.8
2015-Aug-21 06:33N 37°17' W 010°00'1414.4
2015-Aug-21 05:33N 37°31' W 009°60'1514.6
2015-Aug-21 04:34N 37°46' W 009°60'1414.3
2015-Aug-21 03:33N 38°00' W 010°01'1515.1
2015-Aug-21 02:33N 38°15' W 010°00'1514.7
2015-Aug-21 01:33N 38°30' W 010°04'1514.9
2015-Aug-21 00:33N 38°44' W 010°07'1514.6
2015-Aug-20 23:33N 38°59' W 010°08'1515.0
2015-Aug-20 22:33N 39°14' W 010°07'1414.6
2015-Aug-20 21:33N 39°29' W 010°07'1514.7
2015-Aug-20 20:33N 39°43' W 010°07'1514.6
2015-Aug-20 19:33N 39°58' W 010°07'1414.5
2015-Aug-20 18:33N 40°12' W 010°07'1414.3
2015-Aug-20 17:33N 40°27' W 010°08'1514.7
2015-Aug-20 16:33N 40°42' W 010°08'1514.8
2015-Aug-20 15:33N 40°56' W 010°07'1515.0
2015-Aug-20 14:33N 41°11' W 010°07'26111.2
2015-Aug-19 15:09N 43°51' W 005°27'914.9
2015-Aug-19 14:32N 43°50' W 005°14'  
2015-Aug-15 13:33N 50°34' E 000°17'1413.7
2015-Aug-15 12:34N 50°38' E 000°38'1312.9
2015-Aug-15 11:34N 50°44' E 000°55'1312.8
2015-Aug-15 10:33N 50°51' E 001°12'1413.9
2015-Aug-15 09:34N 51°01' E 001°27'1616.4
2015-Aug-15 08:33N 51°13' E 001°46'1515.3
2015-Aug-15 07:33N 51°24' E 002°02'1313.4
2015-Aug-15 06:34N 51°21' E 002°23'10 9.4
2015-Aug-15 05:31N 51°24' E 002°38'0 0.1
2015-Aug-15 04:31N 51°24' E 002°38'1 1.3
2015-Aug-15 03:24N 51°24' E 002°40'8 9.8
2015-Aug-15 02:33N 51°23' E 002°53'1211.6
2015-Aug-15 01:33N 51°24' E 003°12'1110.9
2015-Aug-15 00:33N 51°25' E 003°29'8 8.3
2015-Aug-14 23:34N 51°25' E 003°43'9 8.8
2015-Aug-14 22:33N 51°23' E 003°56'7 7.2
2015-Aug-14 21:33N 51°22' E 004°08'6 5.5
2015-Aug-14 20:28N 51°21' E 004°17'0 0.0
2015-Aug-14 19:33N 51°21' E 004°17'5 4.8
2015-Aug-14 18:33N 51°16' E 004°21'3 2.9
2015-Aug-14 17:32N 51°15' E 004°24'0 0.0
2015-Aug-14 16:32N 51°15' E 004°24'0 0.0
2015-Aug-14 15:32N 51°15' E 004°24'0 0.0
2015-Aug-14 14:32N 51°15' E 004°24'0 0.0
2015-Aug-14 13:32N 51°15' E 004°24'0 0.0
2015-Aug-14 12:32N 51°15' E 004°24'0 0.0
2015-Aug-14 11:32N 51°15' E 004°24'0 0.0
2015-Aug-14 10:32N 51°15' E 004°24'0 0.0
2015-Aug-14 09:32N 51°15' E 004°24'0 0.0
2015-Aug-14 08:32N 51°15' E 004°24'0 0.0
2015-Aug-14 07:32N 51°15' E 004°24'0 0.0
2015-Aug-14 06:32N 51°15' E 004°24'0 0.0
2015-Aug-14 05:32N 51°15' E 004°24'0 0.0
2015-Aug-14 04:32N 51°15' E 004°24'0 0.0
2015-Aug-14 03:32N 51°15' E 004°24'0 0.0
2015-Aug-14 02:32N 51°15' E 004°24'0 0.0
2015-Aug-14 01:32N 51°15' E 004°24'0 0.0
2015-Aug-14 00:32N 51°15' E 004°24'0 0.0
2015-Aug-13 23:32N 51°15' E 004°24'0 0.0
2015-Aug-13 22:32N 51°15' E 004°24'0 0.0
2015-Aug-13 21:32N 51°15' E 004°24'0 0.0
2015-Aug-13 20:32N 51°15' E 004°24'0 0.0
2015-Aug-13 19:32N 51°15' E 004°24'0 0.0
2015-Aug-13 18:32N 51°15' E 004°24'0 0.0
2015-Aug-13 17:32N 51°15' E 004°24'0 0.0
2015-Aug-13 16:32N 51°15' E 004°24'0 0.0
2015-Aug-13 15:32N 51°15' E 004°24'0 0.0
2015-Aug-13 14:32N 51°15' E 004°24'0 0.0
2015-Aug-13 13:32N 51°15' E 004°24'0 0.0
2015-Aug-13 12:32N 51°15' E 004°24'0 0.0
2015-Aug-13 11:32N 51°15' E 004°24'0 0.0
2015-Aug-13 10:32N 51°15' E 004°24'0 0.0
2015-Aug-13 09:32N 51°15' E 004°24'0 0.0
2015-Aug-13 08:32N 51°15' E 004°24'0 0.0
2015-Aug-13 07:32N 51°15' E 004°24'0 0.0
2015-Aug-13 06:32N 51°15' E 004°24'0 0.0
2015-Aug-13 05:32N 51°15' E 004°24'0 0.0
2015-Aug-13 04:32N 51°15' E 004°24'0 0.0
2015-Aug-13 03:32N 51°15' E 004°24'0 0.0
2015-Aug-13 02:32N 51°15' E 004°24'0 0.0
2015-Aug-13 01:32N 51°15' E 004°24'0 0.0
2015-Aug-13 00:32N 51°15' E 004°24'0 0.0
2015-Aug-12 23:32N 51°15' E 004°24'0 0.0
2015-Aug-12 22:32N 51°15' E 004°24'0 0.0
2015-Aug-12 21:32N 51°15' E 004°24'0 0.0
2015-Aug-12 20:32N 51°15' E 004°24'0 0.0
2015-Aug-12 19:32N 51°15' E 004°24'0 0.0
2015-Aug-12 18:32N 51°15' E 004°24'0 0.0
2015-Aug-12 17:32N 51°15' E 004°24'0 0.0
2015-Aug-12 16:32N 51°15' E 004°24'0 0.0
2015-Aug-12 15:32N 51°15' E 004°24'0 0.0
2015-Aug-12 14:32N 51°15' E 004°24'0 0.0
2015-Aug-12 13:32N 51°15' E 004°24'0 0.0
2015-Aug-12 12:32N 51°15' E 004°24'0 0.0
2015-Aug-12 11:32N 51°15' E 004°24'0 0.0
2015-Aug-12 10:32N 51°15' E 004°25'0 0.0
2015-Aug-12 09:32N 51°15' E 004°24'0 0.0
2015-Aug-12 08:32N 51°15' E 004°24'0 0.0
2015-Aug-12 07:32N 51°15' E 004°24'0 0.0
2015-Aug-12 06:32N 51°15' E 004°24'0 0.0
2015-Aug-12 05:32N 51°15' E 004°24'0 0.0
2015-Aug-12 04:32N 51°15' E 004°24'0 0.0
2015-Aug-12 03:32N 51°15' E 004°24'0 0.0
2015-Aug-12 02:32N 51°15' E 004°24'0 0.0
2015-Aug-12 01:29N 51°15' E 004°24'0 0.0
2015-Aug-12 00:32N 51°15' E 004°24'0 0.0
2015-Aug-11 23:32N 51°15' E 004°24'0 0.0
2015-Aug-11 22:32N 51°15' E 004°24'0 0.0
2015-Aug-11 21:32N 51°15' E 004°24'0 0.1
2015-Aug-11 20:33N 51°15' E 004°24'4 3.8
2015-Aug-11 19:33N 51°18' E 004°20'4 3.7
2015-Aug-11 18:33N 51°21' E 004°17'0 0.2
2015-Aug-11 17:33N 51°21' E 004°17'6 5.6
2015-Aug-11 16:33N 51°22' E 004°08'7 7.0
2015-Aug-11 15:34N 51°23' E 003°57'9 9.0
2015-Aug-11 14:33N 51°23' E 003°43'9 9.3
2015-Aug-11 13:33N 51°25' E 003°28'1312.9
2015-Aug-11 12:33N 51°24' E 003°07'10 9.6
2015-Aug-11 11:34N 51°22' E 002°52'  

Dump ship's entire track history